• Join FlightAware (Why Join?)
  • Login
  • US Flag 
11:58PM EDT


 

Airport Tracker/Info


-or-


 

Live Flight TrackerFlight Track Log ✈ A6-ENG ✈ 18-Apr-2013 ✈ YBBN / BNE - WSSS / SIN

Flight Track Log - Related Links

Times and Time Zones

All times are in EDT time to prevent confusion due to time zone crossing. See the A6-ENG flight status page for this flight to view local times or setup timezone preferences in your user account.

Time Position Orientation Groundspeed Altitude Reporting Facility
EDT Latitude Longitude Course Direction KTS MPH feet Rate Location/Type
12:30PM -27.4010 153.1140 208° Southwest 5 6  Level FlightAware
12:33PM -27.4030 153.1180 119° Southeast 7 8 60 Level FlightAware
12:35PM -27.3142 152.8839 293° West  Level Estimated
12:36PM -27.2647 152.7541 293° West  Level Estimated
12:36PM -27.4020 153.1190 293° West 26 30  Level FlightAware
12:37PM -27.3900 153.1260 27° Northeast 145 167 600 Level FlightAware
12:37PM -27.3680 153.1380 26° Northeast 192 221 600 1,920 Climbing FlightAware
12:38PM -27.3480 153.1510 30° Northeast 192 221 1,800 2,400 Climbing FlightAware
12:38PM -27.3350 153.1580 26° Northeast 213 245 2,200 1,620 Climbing FlightAware
12:38PM -27.3110 153.1730 29° Northeast 249 287 2,900 2,280 Climbing FlightAware
12:39PM -27.2770 153.1850 17° North 262 302 4,300 3,000 Climbing FlightAware
12:39PM -27.2400 153.1860 North 271 312 5,900 2,940 Climbing FlightAware
12:40PM -27.2100 153.1810 352° North 283 326 7,000 2,100 Climbing FlightAware
12:40PM -27.1940 153.1680 324° Northwest 300 345 7,300 1,380 Climbing FlightAware
12:40PM -27.1810 153.1460 304° West 317 365 7,700 1,860 Climbing FlightAware
12:40PM -27.1629 153.1147 304° West 316 364 8,300 1,680 Climbing Aus ATC (RADAR)
12:41PM -27.1600 153.1100 304° West 347 399 8,400 2,520 Climbing FlightAware
12:41PM -27.1320 153.0630 304° West 360 414 9,900 3,540 Climbing FlightAware
12:41PM -27.1084 153.0217 304° West 346 398 11,500 3,300 Climbing Aus ATC (RADAR)
12:42PM -27.0960 153.0020 304° West 363 418 12,100 2,880 Climbing FlightAware
12:42PM -27.0519 152.9268 304° West 358 412 14,400 3,060 Climbing Aus ATC (RADAR)
12:43PM -27.0540 152.9300 304° West 373 429 14,400 2,760 Level FlightAware
12:43PM -27.0160 152.8660 304° West 376 433 16,400 2,880 Climbing FlightAware
12:44PM -26.9798 152.8031 304° West 372 428 17,900 2,400 Climbing Aus ATC (RADAR)
12:44PM -26.9760 152.7970 304° West 388 447 18,000 2,100 Climbing FlightAware
12:45PM -26.9330 152.7190 302° West 398 458 19,800 2,640 Climbing FlightAware
12:45PM -26.9116 152.6822 302° West 387 445 20,700 2,520 Climbing Aus ATC (RADAR)
12:45PM -26.8930 152.6490 302° West 402 463 21,500 2,160 Climbing FlightAware
12:46PM -26.8512 152.5762 302° West 398 458 22,900 1,980 Climbing Aus ATC (RADAR)
12:46PM -26.8470 152.5690 302° West 411 473 23,000 1,680 Climbing FlightAware
12:47PM -26.8060 152.4970 303° West 418 481 24,300 1,860 Climbing FlightAware
12:47PM -26.7590 152.4140 302° West 429 494 25,700 1,680 Climbing FlightAware
12:48PM -26.7195 152.3444 302° West 428 493 26,500 1,500 Climbing Aus ATC (RADAR)
12:48PM -26.7160 152.3380 302° West 441 507 26,700 1,560 Climbing FlightAware
12:49PM -26.6720 152.2610 303° West 449 517 27,800 1,740 Climbing FlightAware
12:50PM -26.6200 152.1710 303° West 452 520 29,200 1,800 Climbing FlightAware
12:50PM -26.5793 152.0996 303° West 446 513 30,100 1,620 Climbing Aus ATC (RADAR)
12:50PM -26.5750 152.0920 303° West 454 522 30,300 2,100 Climbing FlightAware
12:51PM -26.5250 152.0060 303° West 443 510 32,000 2,100 Climbing FlightAware
12:52PM -26.4800 151.9310 304° West 438 504 33,300 1,680 Climbing FlightAware
12:52PM -26.4343 151.8656 304° West 428 493 34,000 1,020 Climbing Aus ATC (RADAR)
12:52PM -26.4300 151.8600 304° West 437 503 34,000  Level FlightAware
12:53PM -26.3700 151.7800 310° West 434 499 34,000  Level FlightAware
12:54PM -26.3200 151.7130 310° West 431 496 34,000  Level FlightAware
12:54PM -26.2677 151.6427 310° West 423 487 34,000  Level Aus ATC (RADAR)
12:54PM -26.2630 151.6360 310° West 429 494 34,000  Level FlightAware
12:55PM -26.2130 151.5700 310° West 430 495 34,000  Level FlightAware
12:55PM -26.1847 151.5330 310° West 423 487 34,000  Level Aus ATC (RADAR)
12:56PM -26.1600 151.5000 310° West 431 496 34,000  Level FlightAware
12:57PM -26.0827 151.3968 310° West 424 488 34,000  Level Aus ATC (RADAR)
12:57PM -26.0840 151.3980 310° West 431 496 34,000  Level FlightAware
12:57PM -26.0310 151.3277 310° West 429 494 34,000  Level Aus ATC (RADAR)
12:57PM -26.0320 151.3290 310° West 434 499 34,000  Level FlightAware
12:58PM -25.9820 151.2640 311° West 433 498 34,000  Level FlightAware
12:59PM -25.9344 151.2005 311° West 427 491 34,000  Level Aus ATC (RADAR)
12:59PM -25.9290 151.1910 311° West 432 497 34,000  Level FlightAware
01:00PM -25.8730 151.1190 311° West 430 495 34,000  Level FlightAware
01:00PM -25.8452 151.0819 311° West 425 489 34,000  Level Aus ATC (RADAR)
01:00PM -25.8150 151.0430 311° West 429 494 34,000  Level FlightAware
01:01PM -25.7873 151.0065 311° West 425 489 34,000  Level Aus ATC (RADAR)
01:01PM -25.7730 150.9870 311° West 429 494 34,000  Level FlightAware
01:02PM -25.7042 150.8962 311° West 426 490 34,000  Level Aus ATC (RADAR)
01:02PM -25.7050 150.8970 311° West 432 497 34,000  Level FlightAware
01:02PM -25.6650 150.8450 310° West 432 497 34,000  Level FlightAware
01:03PM -25.6010 150.7610 310° West 428 493 34,000  Level Aus ATC (RADAR)
01:03PM -25.6090 150.7690 310° West 427 491 34,000  Level FlightAware
01:04PM -25.5234 150.6594 310° West 430 495 34,000  Level Aus ATC (RADAR)
01:04PM -25.5200 150.6550 310° West 428 493 34,000  Level FlightAware
01:05PM -25.4520 150.5660 310° West 430 495 34,000  Level FlightAware
01:06PM -25.4080 150.5070 310° West 430 495 34,000  Level FlightAware
01:06PM -25.3611 150.4473 310° West 433 498 34,000  Level Aus ATC (RADAR)
01:06PM -25.3550 150.4340 310° West 430 495 34,000  Level FlightAware
01:07PM -25.3120 150.3760 309° West 430 495 34,000  Level FlightAware
01:08PM -25.2700 150.3180 309° West 430 495 34,000  Level FlightAware
01:08PM -25.1974 150.2347 309° West 435 501 34,000  Level Aus ATC (RADAR)
01:08PM -25.2270 150.2600 309° West 430 495 34,000  Level FlightAware
01:09PM -25.1850 150.2020 309° West 430 495 34,000  Level FlightAware
01:09PM -25.1121 150.1249 309° West 433 498 34,000  Level Aus ATC (RADAR)
01:10PM -25.1420 150.1440 309° West 430 495 34,000  Level FlightAware
01:10PM -25.0333 150.0233 309° West 433 498 34,000  Level Aus ATC (RADAR)
01:11PM -25.0890 150.0710 309° West 430 495 34,000  Level FlightAware
01:11PM -25.0460 150.0130 309° West 430 495 34,000  Level FlightAware
01:11PM -24.9477 149.9134 309° West 433 498 34,000  Level Aus ATC (RADAR)
01:12PM -25.0040 149.9550 309° West 430 495 34,000  Level FlightAware
01:12PM -24.8554 149.7946 309° West 435 501 34,000  Level Aus ATC (RADAR)
01:13PM -24.9500 149.8830 309° West 430 495 34,000  Level FlightAware
01:13PM -24.9080 149.8250 309° West 430 495 34,000  Level FlightAware
01:14PM -24.7358 149.6419 309° West 437 503 34,000  Level Aus ATC (RADAR)
01:14PM -24.8650 149.7670 309° West 430 495 34,000  Level FlightAware
01:14PM -24.6959 149.5909 309° West 438 504 34,000  Level Aus ATC (RADAR)
01:15PM -24.6750 149.5630 309° West 441 507 34,000  Level FlightAware
01:15PM -24.6310 149.5040 309° West 441 507 34,000  Level FlightAware
01:16PM -24.5860 149.4460 310° West 441 507 34,000  Level FlightAware
01:17PM -24.5225 149.3701 310° West 441 507 34,000  Level Aus ATC (RADAR)
01:17PM -24.5410 149.3870 310° West 441 507 34,000  Level FlightAware
01:18PM -24.4860 149.3140 310° West 441 507 34,000  Level FlightAware
01:18PM -24.4410 149.2560 310° West 441 507 34,000  Level FlightAware
01:19PM -24.3537 149.1562 310° West 445 512 34,000  Level Aus ATC (RADAR)
01:19PM -24.3970 149.1980 310° West 441 507 34,000  Level FlightAware
01:20PM -24.3520 149.1390 310° West 441 507 34,000  Level FlightAware
01:20PM -24.3070 149.0810 310° West 441 507 34,000  Level FlightAware
01:21PM -24.1835 148.9416 310° West 447 514 34,000  Level Aus ATC (RADAR)
01:21PM -24.2520 149.0080 310° West 441 507 34,000  Level FlightAware
01:22PM -24.2070 148.9500 310° West 441 507 34,000  Level FlightAware
01:22PM -24.1620 148.8920 310° West 441 507 34,000  Level FlightAware
01:23PM -24.0119 148.7263 310° West 450 518 34,000  Level Aus ATC (RADAR)
01:23PM -24.1180 148.8330 310° West 441 507 34,000  Level FlightAware
01:24PM -24.0730 148.7750 310° West 441 507 34,000  Level FlightAware
01:24PM -23.9294 148.6224 310° West 453 521 34,000  Level Aus ATC (RADAR)
01:25PM -23.8400 148.5105 310° West 450 518 34,000  Level Aus ATC (RADAR)
01:26PM -23.7561 148.4066 311° West 456 525 34,000  Level Aus ATC (RADAR)
01:27PM -23.6656 148.2933 311° West 458 527 34,000  Level Aus ATC (RADAR)
01:28PM -23.5808 148.1887 311° West 462 532 34,000  Level Aus ATC (RADAR)
01:29PM -23.4912 148.0737 310° West 461 531 34,000  Level Aus ATC (RADAR)
01:30PM -23.4023 147.9582 310° West 461 531 34,000  Level Aus ATC (RADAR)
01:31PM -23.3196 147.8519 310° West 460 529 34,000  Level Aus ATC (RADAR)
01:32PM -23.2366 147.7455 310° West 461 531 34,000  Level Aus ATC (RADAR)
01:33PM -23.1467 147.6299 310° West 460 529 34,000  Level Aus ATC (RADAR)
01:34PM -23.0629 147.5235 311° West 462 532 34,000  Level Aus ATC (RADAR)
01:35PM -22.9727 147.4083 310° West 462 532 34,000  Level Aus ATC (RADAR)
01:36PM -22.8894 147.3028 311° West 462 532 34,000  Level Aus ATC (RADAR)
01:37PM -22.8066 147.1972 310° West 461 531 34,000  Level Aus ATC (RADAR)
01:38PM -22.7234 147.0915 310° West 460 529 34,000  Level Aus ATC (RADAR)
01:39PM -22.6332 146.9776 311° West 461 531 34,000  Level Aus ATC (RADAR)
01:40PM -22.5507 146.8728 310° West 462 532 34,000  Level Aus ATC (RADAR)
01:41PM -22.4602 146.7592 311° West 465 535 34,000  Level Aus ATC (RADAR)
01:42PM -22.3766 146.6537 311° West 465 535 34,000  Level Aus ATC (RADAR)
01:44PM -22.2637 146.5125 311° West 470 541 34,000  Level Aus ATC (RADAR)
01:45PM -22.1864 146.4153 311° West 467 537 34,000  Level Aus ATC (RADAR)
01:46PM -22.0795 146.2821 311° West 471 542 34,000  Level Aus ATC (RADAR)
01:47PM -22.0159 146.2027 311° West 468 539 34,000  Level Aus ATC (RADAR)
01:48PM -21.9234 146.0877 311° West 470 541 34,000  Level Aus ATC (RADAR)
01:49PM -21.8093 145.9461 311° West 471 542 34,000  Level Aus ATC (RADAR)
01:50PM -21.7455 145.8669 311° West 468 539 34,000  Level Aus ATC (RADAR)
01:51PM -21.6599 145.7610 311° West 471 542 34,000  Level Aus ATC (RADAR)
01:52PM -21.5457 145.6204 311° West 468 539 34,000  Level Aus ATC (RADAR)
01:53PM -21.4821 145.5421 311° West 467 537 34,000  Level Aus ATC (RADAR)
01:54PM -21.3966 145.4365 311° West 470 541 34,000  Level Aus ATC (RADAR)
01:55PM -21.2822 145.2967 311° West 471 542 34,000  Level Aus ATC (RADAR)
01:56PM -21.2037 145.2002 311° West 472 543 34,000  Level Aus ATC (RADAR)
01:57PM -21.1175 145.0950 311° West 473 544 34,000  Level Aus ATC (RADAR)
01:59PM -21.0030 144.9551 311° West 468 539 34,000  Level Aus ATC (RADAR)
02:00PM -20.9163 144.8497 311° West 472 543 34,000  Level Aus ATC (RADAR)
02:01PM -20.8229 144.7361 311° West 470 541 34,000  Level Aus ATC (RADAR)
02:02PM -20.7278 144.6217 312° West 473 544 34,000  Level Aus ATC (RADAR)
02:03PM -20.6408 144.5162 311° West 475 547 34,000  Level Aus ATC (RADAR)
02:04PM -20.5465 144.4025 312° West 474 545 34,000  Level Aus ATC (RADAR)
02:05PM -20.4593 144.2976 312° West 473 544 34,000  Level Aus ATC (RADAR)
02:06PM -20.3646 144.1842 312° West 475 547 34,000  Level Aus ATC (RADAR)
02:07PM -20.2769 144.0796 312° West 476 548 34,000  Level Aus ATC (RADAR)
02:08PM -20.1456 143.9224 312° West 476 548 34,000  Level Aus ATC (RADAR)
02:09PM -20.0570 143.8173 312° West 478 550 34,000  Level Aus ATC (RADAR)
02:11PM -19.9314 143.6684 312° West 481 554 34,000  Level Aus ATC (RADAR)
02:11PM -19.8777 143.5993 310° West 459 528 34,000  Level Aus ATC (RADAR)
02:13PM -19.7768 143.4845 313° West 479 551 34,000  Level Aus ATC (RADAR)
02:13PM -19.7220 143.4210 312° West 478 550 34,000  Level FlightAware
02:14PM -19.6584 143.3452 312° West 480 552 34,000  Level Aus ATC (RADAR)
02:14PM -19.6700 143.3580 311° West 478 550 34,000  Level FlightAware
02:15PM -19.5880 143.2630 312° West 476 548 34,000  Level FlightAware
02:15PM -19.5280 143.1920 312° West 478 550 34,000  Level FlightAware
02:16PM -19.4811 143.1366 312° West 478 550 34,000  Level Aus ATC (RADAR)
02:16PM -19.4620 143.1150 312° West 479 551 34,000  Level FlightAware
02:17PM -19.4160 143.0600 312° West 480 552 34,000  Level FlightAware
02:17PM -19.3694 143.0052 312° West 480 552 34,000  Level Aus ATC (RADAR)
02:17PM -19.3650 143.0000 312° West 480 552 34,000  Level FlightAware
02:18PM -19.2791 142.8998 312° West 484 557 34,000  Level Aus ATC (RADAR)
02:18PM -19.3140 142.9410 312° West 480 552 34,000  Level FlightAware
02:19PM -19.2510 142.8670 312° West 480 552 34,000  Level FlightAware
02:20PM -19.2010 142.8070 311° West 480 552 34,000  Level FlightAware
02:20PM -19.0915 142.6805 311° West 484 557 34,000  Level Aus ATC (RADAR)
02:20PM -19.1500 142.7480 311° West 480 552 34,000  Level FlightAware
02:21PM -19.1000 142.6880 311° West 480 552 34,000  Level FlightAware
02:22PM -19.0490 142.6290 312° West 480 552 34,000  Level FlightAware
02:22PM -18.9027 142.4608 312° West 484 557 34,000  Level Aus ATC (RADAR)
02:22PM -18.9860 142.5550 312° West 480 552 34,000  Level FlightAware
02:23PM -18.9360 142.4950 311° West 480 552 34,000  Level FlightAware
02:24PM -18.8850 142.4360 312° West 480 552 34,000  Level FlightAware
02:24PM -18.7135 142.2416 312° West 486 559 34,000  Level Aus ATC (RADAR)
02:24PM -18.8340 142.3770 312° West 480 552 34,000  Level FlightAware
02:25PM -18.7840 142.3180 312° West 480 552 34,000  Level FlightAware
02:25PM -18.6155 142.1287 312° West 485 558 34,000  Level Aus ATC (RADAR)
02:26PM -18.7210 142.2440 312° West 480 552 34,000  Level FlightAware
02:26PM -18.5254 142.0246 312° West 483 556 34,000 -120 Level Aus ATC (RADAR)
02:27PM -18.4285 141.9119 312° West 482 555 33,900 -60 Descending Aus ATC (RADAR)
02:29PM -18.3299 141.7985 312° West 485 558 33,900  Level Aus ATC (RADAR)
02:30PM -18.2392 141.6946 313° West 483 556 33,900  Level Aus ATC (RADAR)
02:31PM -18.1481 141.5901 313° West 484 557 33,900  Level Aus ATC (RADAR)
02:32PM -18.0498 141.4776 313° West 484 557 33,900  Level Aus ATC (RADAR)
02:33PM -17.9516 141.3652 313° West 483 556 33,900  Level Aus ATC (RADAR)
02:34PM -17.8609 141.2613 313° West 483 556 33,900  Level Aus ATC (RADAR)
02:35PM -17.7620 141.1482 313° West 486 559 33,900  Level Aus ATC (RADAR)
02:36PM -17.6713 141.0382 311° West 508 585 33,900  Level Aus ATC (RADAR)
02:36PM -17.6219 140.9565 302° West 518 596 33,900  Level Aus ATC (RADAR)
02:41PM -17.3446 140.4150 298° West 34,000  Climbing Aus ATC (Calculated)
02:41PM -17.3142 140.3559 298° West 34,000  Level Aus ATC (Calculated)
02:43PM -17.2370 140.2060 298° West  Level FlightAware Approximate
02:44PM -17.1767 140.0894 298° West  Level FlightAware Approximate
02:45PM -17.1164 139.9728 298° West  Level FlightAware Approximate
02:46PM -17.0560 139.8563 298° West  Level FlightAware Approximate
02:46PM -16.9837 139.7169 299° West 34,000  Level Aus ATC (Calculated)
02:48PM -16.9060 139.5676 299° West  Level FlightAware Approximate
02:49PM -16.8454 139.4513 299° West  Level FlightAware Approximate
02:50PM -16.7847 139.3352 299° West  Level FlightAware Approximate
02:51PM -16.7239 139.2191 299° West  Level FlightAware Approximate
02:51PM -16.6583 139.0937 299° West 34,000  Level Aus ATC (Calculated)
02:52PM -16.6631 139.1030 299° West  Level FlightAware Approximate
02:53PM -16.5791 138.9429 299° West  Level FlightAware Approximate
02:54PM -16.5182 138.8271 299° West  Level FlightAware Approximate
02:55PM -16.4571 138.7113 299° West  Level FlightAware Approximate
02:56PM -16.3960 138.5956 299° West  Level FlightAware Approximate
02:56PM -16.3373 138.4845 299° West 34,000  Level Aus ATC (Calculated)
02:56PM -16.3373 138.4845 299° West 34,000 60 Level Aus ATC (Calculated)
02:57PM -16.3349 138.4800 299° West  Level FlightAware Approximate
02:58PM -16.2577 138.3342 299° West  Level FlightAware Approximate
02:59PM -16.1964 138.2188 299° West  Level FlightAware Approximate
03:00PM -16.1350 138.1034 299° West  Level FlightAware Approximate
03:01PM -16.0736 137.9881 299° West  Level FlightAware Approximate
03:01PM -16.0348 137.9151 299° West 34,000  Level Aus ATC (Calculated)
03:02PM -16.0122 137.8728 299° West  Level FlightAware Approximate
03:03PM -15.9496 137.7558 299° West  Level FlightAware Approximate
03:04PM -15.8880 137.6407 299° West  Level FlightAware Approximate
03:05PM -15.8264 137.5256 299° West  Level FlightAware Approximate
03:06PM -15.7647 137.4107 299° West  Level FlightAware Approximate
03:06PM -15.6950 137.2810 300° West 34,000  Level Aus ATC (Calculated)
03:07PM -15.6124 137.1277 300° West 34,000 120 Level Aus ATC (Calculated)
03:08PM -15.6084 137.1203 299° West  Level FlightAware Approximate
03:09PM -15.5463 137.0053 299° West  Level FlightAware Approximate
03:09PM -15.4883 136.8980 300° West 34,000  Level Aus ATC (Calculated)
03:10PM -15.4261 136.7832 300° West 34,000 240 Level Aus ATC (Calculated)
03:11PM -15.4210 136.7738 299° West  Level FlightAware Approximate
03:12PM -15.3546 136.6515 299° West  Level FlightAware Approximate
03:12PM -15.3042 136.5600 301° West 34,000  Level Aus ATC (Calculated)
03:13PM -15.4168 136.7660 119° Southeast  Level FlightAware Approximate
03:14PM -15.3764 136.6913 120° Southeast  Level FlightAware Approximate
03:15PM -15.3136 136.5771 300° West  Level FlightAware Approximate
03:17PM -15.0250 136.0733 300° West 463 533 35,900  Level Aus ATC (RADAR)
03:20PM -14.8219 135.7106 300° West 467 537 35,900  Level Aus ATC (RADAR)
03:22PM -14.7565 135.5828 298° West 460 529 35,900  Level Aus ATC (RADAR)
03:23PM -14.6902 135.4639 300° West 474 545 35,900  Level Aus ATC (RADAR)
03:23PM -14.6219 135.3467 301° West 471 542 35,900  Level Aus ATC (RADAR)
03:25PM -14.5509 135.2194 300° West 461 531 35,900  Level Aus ATC (RADAR)
03:26PM -14.4896 135.1002 298° West 468 539 35,900  Level Aus ATC (RADAR)
03:27PM -14.4226 134.9817 300° West 472 543 35,900  Level Aus ATC (RADAR)
03:28PM -14.3500 134.8529 300° West 474 545 35,900  Level Aus ATC (RADAR)
03:29PM -14.2899 134.7347 298° West 462 532 35,900  Level Aus ATC (RADAR)
03:30PM -14.2059 134.5860 300° West 474 545 35,900  Level Aus ATC (RADAR)
03:31PM -14.1340 134.4571 300° West 474 545 35,900  Level Aus ATC (RADAR)
03:32PM -14.0673 134.3381 300° West 474 545 35,900  Level Aus ATC (RADAR)
03:33PM -14.0080 134.2240 300° West 481 554 36,000  Climbing FlightAware
03:33PM -13.9957 134.2090 300° West 475 547 35,900  Descending Aus ATC (RADAR)
03:34PM -13.9700 134.1580 301° West 482 555 36,000  Climbing FlightAware
03:34PM -13.9283 134.0902 301° West 474 545 35,900  Descending Aus ATC (RADAR)
03:34PM -13.9270 134.0780 301° West 482 555 36,000 60 Climbing FlightAware
03:35PM -13.8900 134.0090 299° West 482 555 36,000  Level FlightAware
03:36PM -13.8530 133.9410 299° West 482 555 36,000 -120 Level FlightAware
03:36PM -13.7893 133.8417 299° West 475 547 35,900  Descending Aus ATC (RADAR)
03:36PM -13.8070 133.8560 299° West 482 555 36,000 60 Climbing FlightAware
03:37PM -13.7710 133.7870 298° West 482 555 36,000  Level FlightAware
03:38PM -13.7340 133.7190 299° West 482 555 36,000 -120 Level FlightAware
03:38PM -13.6488 133.5935 299° West 476 548 35,900 -120 Descending Aus ATC (RADAR)
03:39PM -13.5755 133.4648 300° West 475 547 35,900  Level Aus ATC (RADAR)
03:40PM -13.5076 133.3458 300° West 475 547 35,900  Level Aus ATC (RADAR)
03:41PM -13.4345 133.2166 300° West 476 548 35,900  Level Aus ATC (RADAR)
03:42PM -13.3670 133.0973 300° West 475 547 35,900 60 Level Aus ATC (RADAR)
03:43PM -13.3480 133.0630 300° West 484 557 36,000  Climbing FlightAware
03:43PM -13.2935 132.9685 300° West 476 548 35,900  Descending Aus ATC (RADAR)
03:44PM -13.2870 132.9560 300° West 486 559 36,000 120 Climbing FlightAware
03:44PM -13.2420 132.8760 300° West 486 559 36,000  Level FlightAware
03:45PM -13.1890 132.7850 301° West 486 559 36,000 -120 Level FlightAware
03:46PM -13.1456 132.7104 301° West 475 547 35,900  Descending Aus ATC (RADAR)
03:46PM -13.1450 132.7080 301° West 485 558 36,000 120 Climbing FlightAware
03:46PM -13.0930 132.6180 301° West 484 557 36,000 -120 Level FlightAware
03:47PM -13.0553 132.5523 301° West 473 544 35,900  Descending Aus ATC (RADAR)
03:47PM -13.0490 132.5400 301° West 484 557 36,000  Climbing FlightAware
03:48PM -12.9932 132.4436 301° West 472 543 35,900  Descending Aus ATC (RADAR)
03:48PM -12.9950 132.4470 301° West 485 558 36,000 120 Climbing FlightAware
03:49PM -12.9490 132.3670 301° West 484 557 36,000 -120 Level FlightAware
03:49PM -12.9243 132.3252 301° West 473 544 35,900  Descending Aus ATC (RADAR)
03:49PM -12.9040 132.2890 301° West 485 558 36,000 60 Climbing FlightAware
03:50PM -12.8570 132.2010 299° West 485 558 36,000 -120 Level FlightAware
03:50PM -12.8347 132.1533 299° West 473 544 35,900  Descending Aus ATC (RADAR)
03:51PM -12.8240 132.1150 299° West 485 558 36,000  Climbing FlightAware
03:51PM -12.7929 132.0227 299° West 474 545 35,900  Descending Aus ATC (RADAR)
03:51PM -12.7910 132.0140 299° West 483 556 36,000 120 Climbing FlightAware
03:52PM -12.7640 131.9310 288° West 482 555 36,000 -120 Level FlightAware
03:52PM -12.7475 131.8821 288° West 472 543 35,900  Descending Aus ATC (RADAR)
03:53PM -12.7350 131.8420 288° West 481 554 36,000  Climbing FlightAware
03:53PM -12.7047 131.7532 288° West 470 541 35,900  Descending Aus ATC (RADAR)
03:53PM -12.7020 131.7430 288° West 482 555 36,000 120 Climbing FlightAware
03:54PM -12.6740 131.6610 289° West 482 555 36,000  Level FlightAware
03:55PM -12.6410 131.5610 289° West 481 554 36,000 -120 Level FlightAware
03:55PM -12.6158 131.4840 289° West 466 536 35,900  Descending Aus ATC (RADAR)
03:56PM -12.6140 131.4780 289° West 481 554 36,000 120 Climbing FlightAware
03:56PM -12.5830 131.3900 290° West 480 552 36,000 -120 Level FlightAware
03:57PM -12.5640 131.3474 290° West 465 535 35,900  Descending Aus ATC (RADAR)
03:57PM -12.5380 131.2970 290° West 480 552 36,000  Climbing FlightAware
03:58PM -12.5035 131.2267 290° West 465 535 35,900  Descending Aus ATC (RADAR)
03:58PM -12.4980 131.2150 290° West 482 555 36,000 60 Climbing FlightAware
03:58PM -12.4540 131.1260 297° West 482 555 36,000  Level FlightAware
03:59PM -12.4100 131.0360 297° West 482 555 36,000  Level FlightAware
04:00PM -12.3700 130.9540 297° West 482 555 36,000  Level FlightAware
04:00PM -12.3300 130.8740 297° West 481 554 36,000  Level FlightAware
04:01PM -12.2840 130.7790 296° West 481 554 36,000 -120 Level FlightAware
04:02PM -12.2536 130.7158 296° West 457 526 35,900  Descending Aus ATC (RADAR)
04:02PM -12.2440 130.6980 296° West 480 552 36,000 60 Climbing FlightAware
04:03PM -12.2000 130.6080 297° West 482 555 36,000  Level FlightAware
04:03PM -12.1580 130.5230 297° West 482 555 36,000 -120 Level FlightAware
04:04PM -12.1233 130.4511 297° West 468 539 35,900  Descending Aus ATC (RADAR)
04:04PM -12.1140 130.4320 297° West 483 556 36,000 60 Climbing FlightAware
04:05PM -12.0740 130.3510 297° West 484 557 36,000  Level FlightAware
04:05PM -12.0340 130.2700 297° West 485 558 36,000 -120 Level FlightAware
04:06PM -11.9935 130.1850 297° West 470 541 35,900  Descending Aus ATC (RADAR)
04:06PM -11.9940 130.1880 297° West 485 558 36,000 120 Climbing FlightAware
04:07PM -11.9480 130.0930 296° West 485 558 36,000 -120 Level FlightAware
04:07PM -11.9287 130.0523 296° West 470 541 35,900  Descending Aus ATC (RADAR)
04:08PM -11.9040 130.0030 296° West 486 559 36,000 60 Climbing FlightAware
04:08PM -11.8640 129.9210 296° West 486 559 36,000  Level FlightAware
04:09PM -11.8250 129.8400 296° West 486 559 36,000 -120 Level FlightAware
04:09PM -11.8039 129.7956 296° West 470 541 35,900  Descending Aus ATC (RADAR)
04:10PM -11.7800 129.7480 296° West 486 559 36,000 60 Climbing FlightAware
04:10PM -11.7500 129.6830 296° West 485 558 36,000 -240 Level FlightAware
04:10PM -11.7461 129.6719 296° West 469 540 35,900 -120 Descending Aus ATC (RADAR)
04:12PM -11.6815 129.4792 296° West 472 543 35,900  Level Aus ATC (RADAR)
04:12PM -11.6430 129.4099 300° West 469 540 35,900  Level Aus ATC (RADAR)
04:13PM -11.5730 129.2795 299° West 468 539 35,900  Level Aus ATC (RADAR)
04:14PM -11.5340 129.2070 299° West 484 557 36,000 60 Climbing FlightAware
04:15PM -11.4930 129.1280 298° West 484 557 36,000  Level FlightAware
04:15PM -11.4490 129.0450 298° West 485 558 36,000 -120 Level FlightAware
04:16PM -11.4208 128.9879 298° West 468 539 35,900  Descending Aus ATC (RADAR)
04:16PM -11.4000 128.9510 298° West 485 558 36,000  Climbing FlightAware
04:17PM -11.3577 128.8666 298° West 468 539 35,900  Descending Aus ATC (RADAR)
04:17PM -11.3640 128.8820 298° West 485 558 36,000 120 Climbing FlightAware
04:17PM -11.3280 128.8130 298° West 485 558 36,000  Level FlightAware
04:18PM -11.2920 128.7450 298° West 485 558 36,000 -180 Level FlightAware
04:18PM -11.2651 128.6967 298° West 468 539 35,900  Descending Aus ATC (RADAR)
04:19PM -11.2470 128.6590 298° West 485 558 36,000  Climbing FlightAware
04:19PM -11.1976 128.5654 298° West 467 537 35,900  Descending Aus ATC (RADAR)
04:20PM -11.2110 128.5900 298° West 485 558 36,000  Climbing FlightAware
04:20PM -11.1324 128.4451 298° West 469 540 35,900  Descending Aus ATC (RADAR)
04:20PM -11.1760 128.5210 298° West 485 558 36,000 120 Climbing FlightAware
04:21PM -11.1400 128.4530 298° West 485 558 36,000 -120 Level FlightAware
04:21PM -11.0635 128.3134 298° West 468 539 35,900  Descending Aus ATC (RADAR)
04:22PM -11.1040 128.3840 298° West 485 558 36,000  Climbing FlightAware
04:22PM -10.9938 128.1824 298° West 469 540 35,900  Descending Aus ATC (RADAR)
04:22PM -11.0590 128.2980 298° West 485 558 36,000 120 Climbing FlightAware
04:23PM -11.0230 128.2300 298° West 485 558 36,000 -120 Level FlightAware
04:23PM -10.9228 128.0512 298° West 469 540 35,900  Descending Aus ATC (RADAR)
04:24PM -10.9880 128.1610 298° West 485 558 36,000 60 Climbing FlightAware
04:24PM -10.9520 128.0920 298° West 485 558 36,000  Level FlightAware
04:25PM -10.9160 128.0240 298° West 485 558 36,000 -120 Level FlightAware
04:26PM -10.7832 127.7884 298° West 471 542 35,900  Descending Aus ATC (RADAR)
04:27PM -10.6921 127.6161 298° West 470 541 36,000  Climbing Aus ATC (RADAR)
04:28PM -10.6425 127.5403 304° West 468 539 36,000  Level Aus ATC (RADAR)
04:29PM -10.5814 127.4047 295° West 467 537 36,000  Level Aus ATC (RADAR)
04:34PM -10.2169 126.7308 297° West 36,000  Level Aus ATC (Calculated)
04:36PM -10.2798 126.8499 118° Southeast  Level FlightAware Approximate
04:37PM -10.3396 126.9634 118° Southeast  Level FlightAware Approximate
04:38PM -10.3915 127.0637 299° West  Level FlightAware Approximate
04:39PM -10.3311 126.9519 299° West  Level FlightAware Approximate
04:40PM -10.2706 126.8400 299° West  Level FlightAware Approximate
04:41PM -10.2101 126.7282 299° West  Level FlightAware Approximate
04:42PM -10.1496 126.6165 299° West  Level FlightAware Approximate
04:43PM -10.0890 126.5048 299° West  Level FlightAware Approximate
04:44PM -10.0284 126.3931 299° West  Level FlightAware Approximate
04:45PM -9.9677 126.2815 299° West  Level FlightAware Approximate
04:46PM -9.9070 126.1699 299° West  Level FlightAware Approximate
04:47PM -9.8500 126.0565 296° West  Level FlightAware Approximate
04:48PM -9.7955 125.9417 296° West  Level FlightAware Approximate
04:49PM -9.7410 125.8269 296° West  Level FlightAware Approximate
04:50PM -9.6864 125.7122 296° West  Level FlightAware Approximate
04:51PM -9.6318 125.5975 296° West  Level FlightAware Approximate
04:52PM -9.5772 125.4829 296° West  Level FlightAware Approximate
04:53PM -9.5225 125.3683 296° West  Level FlightAware Approximate
04:54PM -9.4678 125.2537 296° West  Level FlightAware Approximate
04:55PM -9.4130 125.1392 296° West  Level FlightAware Approximate
04:56PM -9.3582 125.0247 296° West  Level FlightAware Approximate
04:57PM -9.3034 124.9102 296° West  Level FlightAware Approximate
04:58PM -9.2486 124.7958 296° West  Level FlightAware Approximate
04:59PM -9.1937 124.6814 296° West  Level FlightAware Approximate
05:00PM -9.1388 124.5670 296° West  Level FlightAware Approximate
05:01PM -9.0838 124.4527 296° West  Level FlightAware Approximate
05:02PM -9.0288 124.3384 296° West  Level FlightAware Approximate
05:03PM -8.9737 124.2242 296° West  Level FlightAware Approximate
05:04PM -8.9187 124.1100 296° West  Level FlightAware Approximate
05:05PM -8.8636 123.9958 296° West  Level FlightAware Approximate
05:06PM -8.8084 123.8817 296° West  Level FlightAware Approximate
05:07PM -8.7532 123.7675 296° West  Level FlightAware Approximate
05:08PM -8.6980 123.6535 296° West  Level FlightAware Approximate
05:09PM -8.6428 123.5394 296° West  Level FlightAware Approximate
05:10PM -8.5875 123.4254 296° West  Level FlightAware Approximate
05:11PM -8.5322 123.3114 296° West  Level FlightAware Approximate
05:12PM -8.4769 123.1975 296° West  Level FlightAware Approximate
05:13PM -8.4215 123.0836 296° West  Level FlightAware Approximate
05:14PM -8.3661 122.9697 296° West  Level FlightAware Approximate
05:15PM -8.3106 122.8559 296° West  Level FlightAware Approximate
05:16PM -8.2551 122.7420 296° West  Level FlightAware Approximate
05:17PM -8.1996 122.6283 296° West  Level FlightAware Approximate
05:18PM -8.1441 122.5145 296° West  Level FlightAware Approximate
05:19PM -8.0885 122.4008 296° West  Level FlightAware Approximate
05:20PM -8.0329 122.2871 296° West  Level FlightAware Approximate
05:21PM -7.9773 122.1734 296° West  Level FlightAware Approximate
05:22PM -7.9216 122.0598 296° West  Level FlightAware Approximate
05:23PM -7.8659 121.9462 296° West  Level FlightAware Approximate
05:24PM -7.8102 121.8327 296° West  Level FlightAware Approximate
05:25PM -7.7544 121.7191 296° West  Level FlightAware Approximate
05:26PM -7.6987 121.6056 296° West  Level FlightAware Approximate
05:27PM -7.6428 121.4922 296° West  Level FlightAware Approximate
05:28PM -7.5870 121.3787 296° West  Level FlightAware Approximate
05:29PM -7.5311 121.2653 296° West  Level FlightAware Approximate
05:30PM -7.4752 121.1519 296° West  Level FlightAware Approximate
05:31PM -7.4193 121.0386 296° West  Level FlightAware Approximate
05:32PM -7.3633 120.9252 296° West  Level FlightAware Approximate
05:33PM -7.3074 120.8119 296° West  Level FlightAware Approximate
05:34PM -7.2513 120.6986 296° West  Level FlightAware Approximate
05:35PM -7.1953 120.5854 297° West  Level FlightAware Approximate
05:36PM -7.1392 120.4722 297° West  Level FlightAware Approximate
05:37PM -7.0831 120.3590 297° West  Level FlightAware Approximate
05:38PM -7.0270 120.2458 297° West  Level FlightAware Approximate
05:39PM -6.9708 120.1327 297° West  Level FlightAware Approximate
05:40PM -6.9146 120.0196 297° West  Level FlightAware Approximate
05:41PM -6.8580 119.9067 297° West  Level FlightAware Approximate
05:42PM -6.8015 119.7938 297° West  Level FlightAware Approximate
05:43PM -6.7449 119.6810 297° West  Level FlightAware Approximate
05:44PM -6.6882 119.5681 297° West  Level FlightAware Approximate
05:45PM -6.6316 119.4553 297° West  Level FlightAware Approximate
05:46PM -6.5749 119.3426 297° West  Level FlightAware Approximate
05:47PM -6.5182 119.2298 297° West  Level FlightAware Approximate
05:48PM -6.4615 119.1171 297° West  Level FlightAware Approximate
05:49PM -6.4047 119.0044 297° West  Level FlightAware Approximate
05:50PM -6.3479 118.8917 297° West  Level FlightAware Approximate
05:51PM -6.2911 118.7791 297° West  Level FlightAware Approximate
05:52PM -6.2343 118.6665 297° West  Level FlightAware Approximate
05:53PM -6.1775 118.5538 297° West  Level FlightAware Approximate
05:54PM -6.1206 118.4413 297° West  Level FlightAware Approximate
05:55PM -6.0637 118.3287 297° West  Level FlightAware Approximate
05:56PM -6.0068 118.2162 297° West  Level FlightAware Approximate
05:57PM -5.9498 118.1037 297° West  Level FlightAware Approximate
05:58PM -5.8929 117.9912 297° West  Level FlightAware Approximate
05:59PM -5.8359 117.8787 297° West  Level FlightAware Approximate
06:00PM -5.7789 117.7663 297° West  Level FlightAware Approximate
06:01PM -5.7218 117.6539 297° West  Level FlightAware Approximate
06:02PM -5.6648 117.5415 297° West  Level FlightAware Approximate
06:03PM -5.6077 117.4291 297° West  Level FlightAware Approximate
06:04PM -5.5506 117.3168 297° West  Level FlightAware Approximate
06:05PM -5.4935 117.2045 297° West  Level FlightAware Approximate
06:06PM -5.4364 117.0922 297° West  Level FlightAware Approximate
06:07PM -5.3792 116.9799 297° West  Level FlightAware Approximate
06:08PM -5.3220 116.8676 297° West  Level FlightAware Approximate
06:09PM -5.2648 116.7554 297° West  Level FlightAware Approximate
06:10PM -5.2076 116.6432 297° West  Level FlightAware Approximate
06:11PM -5.1504 116.5310 297° West  Level FlightAware Approximate
06:12PM -5.0931 116.4188 297° West  Level FlightAware Approximate
06:13PM -5.0358 116.3066 297° West  Level FlightAware Approximate
06:14PM -4.9785 116.1945 297° West  Level FlightAware Approximate
06:15PM -4.9212 116.0824 297° West  Level FlightAware Approximate
06:16PM -4.8639 115.9703 297° West  Level FlightAware Approximate
06:17PM -4.8065 115.8582 297° West  Level FlightAware Approximate
06:18PM -4.7491 115.7461 297° West  Level FlightAware Approximate
06:19PM -4.6918 115.6341 297° West  Level FlightAware Approximate
06:20PM -4.6343 115.5220 297° West  Level FlightAware Approximate
06:21PM -4.5769 115.4100 297° West  Level FlightAware Approximate
06:22PM -4.5195 115.2980 297° West  Level FlightAware Approximate
06:23PM -4.4620 115.1861 297° West  Level FlightAware Approximate
06:24PM -4.4045 115.0741 297° West  Level FlightAware Approximate
06:25PM -4.3471 114.9622 297° West  Level FlightAware Approximate
06:26PM -4.2895 114.8503 297° West  Level FlightAware Approximate
06:27PM -4.2320 114.7384 297° West  Level FlightAware Approximate
06:28PM -4.1745 114.6265 297° West  Level FlightAware Approximate
06:29PM -4.1169 114.5146 297° West  Level FlightAware Approximate
06:30PM -4.0593 114.4028 297° West  Level FlightAware Approximate
06:31PM -4.0017 114.2909 297° West  Level FlightAware Approximate
06:32PM -3.9441 114.1791 297° West  Level FlightAware Approximate
06:33PM -3.8865 114.0673 297° West  Level FlightAware Approximate
06:34PM -3.8289 113.9555 297° West  Level FlightAware Approximate
06:35PM -3.7712 113.8437 297° West  Level FlightAware Approximate
06:36PM -3.7136 113.7320 297° West  Level FlightAware Approximate
06:37PM -3.6559 113.6202 297° West  Level FlightAware Approximate
06:38PM -3.5982 113.5085 297° West  Level FlightAware Approximate
06:39PM -3.5405 113.3968 297° West  Level FlightAware Approximate
06:40PM -3.4828 113.2851 297° West  Level FlightAware Approximate
06:41PM -3.4250 113.1734 297° West  Level FlightAware Approximate
06:42PM -3.3668 113.0607 297° West  Level FlightAware Approximate
06:43PM -3.3085 112.9480 297° West  Level FlightAware Approximate
06:44PM -3.2502 112.8354 297° West  Level FlightAware Approximate
06:45PM -3.1919 112.7227 297° West  Level FlightAware Approximate
06:46PM -3.1336 112.6101 297° West  Level FlightAware Approximate
06:47PM -3.0752 112.4975 297° West  Level FlightAware Approximate
06:48PM -3.0169 112.3848 297° West  Level FlightAware Approximate
06:49PM -2.9585 112.2722 297° West  Level FlightAware Approximate
06:50PM -2.9002 112.1597 297° West  Level FlightAware Approximate
06:51PM -2.8418 112.0471 297° West  Level FlightAware Approximate
06:52PM -2.7842 111.9360 297° West  Level Estimated
06:53PM -2.7266 111.8249 297° West  Level Estimated
06:54PM -2.6691 111.7138 297° West  Level Estimated
06:55PM -2.6115 111.6027 297° West  Level Estimated
06:56PM -2.5538 111.4917 297° West  Level Estimated
06:57PM -2.4962 111.3806 297° West  Level Estimated
06:58PM -2.4386 111.2696 297° West  Level Estimated
06:59PM -2.3810 111.1585 297° West  Level Estimated
07:00PM -2.3233 111.0475 297° West  Level Estimated
07:01PM -2.2657 110.9365 297° West  Level Estimated
07:02PM -2.2080 110.8255 297° West  Level Estimated
07:03PM -2.1503 110.7145 297° West  Level Estimated
07:04PM -2.0926 110.6035 297° West  Level Estimated
07:05PM -2.0350 110.4925 297° West  Level Estimated
07:06PM -1.9772 110.3815 297° West  Level Estimated
07:07PM -1.9195 110.2706 297° West  Level Estimated
07:08PM -1.8618 110.1596 297° West  Level Estimated
07:09PM -1.8041 110.0487 297° West  Level Estimated
07:10PM -1.7464 109.9377 297° West  Level Estimated
07:11PM -1.6887 109.8268 298° West  Level Estimated
07:12PM -1.6309 109.7159 298° West  Level Estimated
07:13PM -1.5732 109.6049 298° West  Level Estimated
07:14PM -1.5154 109.4940 298° West  Level Estimated
07:15PM -1.4577 109.3831 298° West  Level Estimated
07:16PM -1.3999 109.2722 298° West  Level Estimated
07:17PM -1.3421 109.1613 298° West  Level Estimated
07:17PM 0.2500 107.1820 298° West 507 583 36,000  Level FlightAware
07:17PM 0.2930 107.1150 303° West 507 583 36,000  Level FlightAware
07:18PM 0.3360 107.0480 303° West 507 583 36,000  Level FlightAware
07:19PM 0.3800 106.9810 303° West 507 583 36,000  Level FlightAware
07:19PM 0.4220 106.8950 296° West 510 587 36,000  Level FlightAware
07:20PM 0.4380 106.8030 280° West 507 583 36,000  Level FlightAware
07:20PM 0.4530 106.6990 278° West 508 585 36,000  Level FlightAware
07:21PM 0.4640 106.6240 278° West 508 585 36,000  Level FlightAware
07:22PM 0.4820 106.5080 279° West 508 585 36,000  Level FlightAware
07:23PM 0.4980 106.4070 279° West 508 585 36,000  Level FlightAware
07:23PM 0.5150 106.2870 278° West 508 585 36,000  Level FlightAware
07:24PM 0.5300 106.2000 280° West 507 583 36,000  Level FlightAware
07:25PM 0.5470 106.0830 278° West 507 583 36,000  Level FlightAware
07:26PM 0.5610 105.9910 279° West 508 585 36,000 -180 Level FlightAware
07:26PM 0.5770 105.8870 279° West 507 583 35,800 -900 Descending FlightAware
07:27PM 0.5920 105.7900 279° West 510 587 34,800 -2,040 Descending FlightAware
07:28PM 0.6060 105.6970 279° West 511 588 33,100 -2,520 Descending FlightAware
07:28PM 0.6220 105.5930 279° West 504 580 31,300 -2,220 Descending FlightAware
07:29PM 0.6360 105.5030 279° West 496 571 30,000 -2,040 Descending FlightAware
07:30PM 0.6490 105.4130 278° West 493 567 28,600 -2,160 Descending FlightAware
07:30PM 0.6640 105.3100 278° West 482 555 27,000 -2,160 Descending FlightAware
07:31PM 0.6760 105.2230 278° West 474 545 25,600 -1,980 Descending FlightAware
07:32PM 0.6900 105.1290 278° West 464 534 24,200 -1,980 Descending FlightAware
07:33PM 0.7020 105.0440 278° West 454 522 22,800 -2,040 Descending FlightAware
07:33PM 0.7140 104.9630 278° West 445 512 21,500 -1,980 Descending FlightAware
07:34PM 0.7380 104.8730 285° West 433 498 20,000 -1,980 Descending FlightAware
07:35PM 0.7660 104.7980 290° West 424 488 18,700 -1,800 Descending FlightAware
07:35PM 0.7970 104.7200 292° West 410 472 17,500 -1,080 Descending FlightAware
07:36PM 0.8230 104.6520 291° West 378 435 17,200 -360 Descending FlightAware
07:37PM 0.8660 104.5920 306° West 331 381 17,000 -240 Descending FlightAware
07:37PM 0.9200 104.5650 333° Northwest 319 367 16,900 -780 Descending FlightAware
07:38PM 0.9750 104.5400 336° Northwest 316 364 16,000 -1,380 Descending FlightAware
07:39PM 1.0330 104.5140 336° Northwest 312 359 15,000 -1,380 Descending FlightAware
07:40PM 1.0850 104.4900 335° Northwest 309 356 14,100 -1,080 Descending FlightAware
07:40PM 1.1420 104.4580 331° Northwest 293 337 13,500 -1,080 Descending FlightAware
07:41PM 1.1830 104.4310 327° Northwest 265 305 12,600 -1,740 Descending FlightAware
07:42PM 1.2220 104.4050 326° Northwest 254 292 11,200 -2,160 Descending FlightAware
07:42PM 1.2680 104.3750 327° Northwest 247 284 9,600 -2,280 Descending FlightAware
07:43PM 1.2910 104.3610 329° Northwest 249 287 8,600 -1,980 Descending FlightAware
07:43PM 1.3220 104.3420 329° Northwest 249 287 7,800 -1,200 Descending FlightAware
07:44PM 1.3510 104.3240 328° Northwest 240 276 7,400 -900 Descending FlightAware
07:44PM 1.3740 104.3080 325° Northwest 233 268 7,000 -1,140 Descending FlightAware
07:45PM 1.3960 104.2840 313° West 232 267 6,400 -1,140 Descending FlightAware
07:45PM 1.4130 104.2660 313° West 230 265 6,000 -1,200 Descending FlightAware
07:46PM 1.4340 104.2420 311° West 235 270 5,300 -1,500 Descending FlightAware
07:46PM 1.4570 104.2170 313° West 235 270 4,500 -1,860 Descending FlightAware
07:47PM 1.4730 104.1940 305° West 230 265 3,600 -1,440 Descending FlightAware
07:47PM 1.4890 104.1670 301° West 226 260 3,200 -660 Descending FlightAware
07:47PM 1.5020 104.1460 302° West 214 246 3,000 -600 Descending FlightAware
07:48PM 1.5170 104.1210 301° West 204 235 2,700 -540 Descending FlightAware
07:48PM 1.5310 104.0970 300° West 196 226 2,500 -480 Descending FlightAware
07:49PM 1.5360 104.0820 288° West 188 216 2,300 -480 Descending FlightAware
07:49PM 1.5280 104.0660 243° Southwest 186 214 2,200 -300 Descending FlightAware
07:49PM 1.5170 104.0530 230° Southwest 186 214 2,100  Descending FlightAware
07:50PM 1.4900 104.0370 211° Southwest 192 221 2,200 -120 Climbing FlightAware
07:51PM 1.4650 104.0260 204° Southwest 189 217 2,000 -660 Descending FlightAware
07:51PM 1.4460 104.0180 203° Southwest 174 200 1,600 -900 Descending FlightAware
07:51PM 1.4250 104.0100 201° Southwest 154 177 1,200 -780 Descending FlightAware
07:52PM 1.4080 104.0030 202° Southwest 152 175 900 -780 Descending FlightAware
07:52PM 1.3890 103.9940 205° Southwest 152 175 500 -780 Descending FlightAware
07:53PM 1.3740 103.9880 202° Southwest 156 180 200 -360 Descending FlightAware
07:53PM 1.3580 103.9810 204° Southwest 156 180 200  Level FlightAware
07:56PM 1.3557 103.9875 109° East  Level Estimated
07:57PM 1.3557 103.9875 214° Southwest  Level Estimated
07:58PM 1.3557 103.9875 214° Southwest  Level Estimated
07:59PM 1.3557 103.9875 214° Southwest  Level Estimated
08:00PM 1.3557 103.9875 214° Southwest  Level Estimated